Donie, TX (75838)

12:06 PM CDT on September 04, 2015 (GMT -0500)
TWCC | | Change Station
CLOSE
Current Station
Personal Weather Station
Location: Jewett, TX
Elevation: 453 ft
Nearby Weather Stations

Elev 453 ft 31.42 °N, 96.25 °W | Updated 1 minute ago

Partly Cloudy
Partly Cloudy
89.1 °F
Feels Like 98 °F
N
8.7
Wind Variable Wind from North
Gusts 12.8 mph

Today
High -- | Low -- °F
--% Chance of Precip.
Yesterday
High -- | Low -- °F
Precip. -- in
7:02 AM 7:45 PM
Waning Gibbous, 58% visible
Pressure 29.97 in
Visibility 10.0 miles
Clouds Mostly Cloudy 3700 ft
Mostly Cloudy 4700 ft
Heat Index 98 °F
Dew Point 74 °F
Humidity 61%
Rainfall 0.00 in
Snow Depth Not available.
UV 5 out of 12
Pollen 9.20 out of 12
Air Quality Not available.
Flu Activity Not available.
METAR KLXY 041655Z AUTO 13010G15KT 020V180 10SM BKN037 BKN047 31/21 A2997 RMK AO2 T03050214
Pressure 29.97 in
Visibility 10.0 miles
Clouds Mostly Cloudy 3700 ft
Mostly Cloudy 4700 ft
Heat Index 98 °F
Dew Point 74 °F
Humidity 61%
Rainfall 0.00 in
Snow Depth Not available.
UV 5 out of 12
Pollen 9.20 out of 12
Air Quality Not available.
Flu Activity Not available.
METAR KLXY 041655Z AUTO 13010G15KT 020V180 10SM BKN037 BKN047 31/21 A2997 RMK AO2 T03050214

10-Day Weather Forecast

×

Almanac

Astronomy

Sep. 04, 2015 Rise Set
Actual Time
Civil Twilight
Nautical Twilight
Astronomical Twilight
Moon
Length of Visible Light
Length of Day
Tomorrow will be .
, % of the Moon is Illuminated

Today's Extremes

State Highs State Lows

Community

WunderPhotos

Upload Photos

1,852,230 photos uploaded!

WunderBlogs® & News

Nearby

Air Quality

  Air Quality AQ Index Pollutant
Not available.

Snow Depth

Station Depth Elevation

Earthquake Activity

City Distance Mag. Time & Date
Minimum magnitude displayed is 2.5.

Coastal Water Temperatures

Place Temperature

Stations

Nearby Weather Stations

Station Location Temp. Windchill Dew Point Humidity Wind Precip. Elev Updated Type